Time;durP1;ratioP1;P1;durP2;ratioP2;P2;SDS_P1;SDS_P2;PMS_P1;PMS_P2;Temp;Humidity;BMP_temperature;BMP_pressure;BME280_temperature;BME280_humidity;BME280_pressure;Samples;Min_cycle;Max_cycle;Signal;HPM_P1;HPM_P2
2024/01/02 00:00:43;;;;;;;;;;;;;;;3.59;100.00;99762.97;6264103;28;20055;-83
2024/01/02 00:03:43;;;;;;;;;;;;;;;3.51;100.00;99751.28;6270435;28;19974;-83
2024/01/02 00:06:46;;;;;;;;;;;;;;;3.40;100.00;99761.97;6282115;28;20023;-77
2024/01/02 00:09:47;;;;;;;;;;;;;;;3.55;100.00;99760.56;6263596;28;19956;-77
2024/01/02 00:12:48;;;;;;;;;;;;;;;3.58;100.00;99748.41;6264016;28;20396;-83
2024/01/02 00:15:49;;;;;;;;;;;;;;;3.61;100.00;99753.44;6271957;28;19925;-83
2024/01/02 00:18:50;;;;;;;;;;;;;;;3.55;100.00;99750.25;6255212;28;19948;-82
2024/01/02 00:21:52;;;;;;;;;;;;;;;3.52;100.00;99742.63;6285415;28;19960;-83
2024/01/02 00:24:53;;;;;;;;;;;;;;;3.59;100.00;99749.25;6260133;28;19995;-83
2024/01/02 00:27:54;;;;;;;;;;;;;;;3.49;100.00;99760.81;6273954;28;19960;-77
2024/01/02 00:30:55;;;;;;;;;;;;;;;3.53;100.00;99754.63;6261051;28;20011;-77
2024/01/02 00:33:55;;;;;;;;;;;;;;;3.58;100.00;99755.28;6274226;28;20387;-78
2024/01/02 00:36:57;;;;;;;;;;;;;;;3.59;100.00;99764.72;6259422;28;19925;-82
2024/01/02 00:39:58;;;;;;;;;;;;;;;3.53;100.00;99768.38;6274555;28;20031;-78
2024/01/02 00:42:59;;;;;;;;;;;;;;;3.54;100.00;99774.34;6258005;28;20269;-77
2024/01/02 00:46:02;;;;;;;;;;;;;;;3.51;100.00;99772.75;6283865;28;20393;-77
2024/01/02 00:49:03;;;;;;;;;;;;;;;3.56;100.00;99783.75;6276500;28;20007;-77
2024/01/02 00:52:06;;;;;;;;;;;;;;;3.59;100.00;99781.03;6276434;28;19970;-77
2024/01/02 00:55:07;;;;;;;;;;;;;;;3.60;100.00;99779.28;6276275;28;19925;-77
2024/01/02 00:58:08;;;;;;;;;;;;;;;3.64;100.00;99767.97;6280799;28;19942;-77
2024/01/02 01:01:09;;;;;;;;;;;;;;;3.57;100.00;99769.94;6280257;28;20009;-82
2024/01/02 01:04:10;;;;;;;;;;;;;;;3.61;100.00;99763.75;6272587;28;19920;-83
2024/01/02 01:07:10;;;;;;;;;;;;;;;3.62;100.00;99764.59;6262141;28;19920;-83
2024/01/02 01:10:11;;;;;;;;;;;;;;;3.57;100.00;99769.09;6275600;28;20288;-82
2024/01/02 01:13:12;;;;;;;;;;;;;;;3.52;100.00;99766.69;6285893;28;19921;-77
2024/01/02 01:16:13;;;;;;;;;;;;;;;3.52;100.00;99771.00;6267190;28;19920;-82
2024/01/02 01:19:14;;;;;;;;;;;;;;;3.58;100.00;99769.06;6270062;28;19928;-77
2024/01/02 01:22:14;;;;;;;;;;;;;;;3.46;100.00;99768.63;6290083;28;20372;-83
2024/01/02 01:25:15;;;;;;;;;;;;;;;3.57;100.00;99766.53;6267653;28;19935;-77
2024/01/02 01:28:16;;;;;;;;;;;;;;;3.61;100.00;99766.34;6260178;28;19921;-83
2024/01/02 01:31:17;;;;;;;;;;;;;;;3.57;100.00;99762.19;6271537;28;19920;-82
2024/01/02 01:34:18;;;;;;;;;;;;;;;3.54;100.00;99766.63;6264707;28;20369;-83
2024/01/02 01:37:18;;;;;;;;;;;;;;;3.63;100.00;99769.72;6277996;28;20284;-83
2024/01/02 01:40:19;;;;;;;;;;;;;;;3.64;100.00;99778.28;6287378;28;19920;-83
2024/01/02 01:43:20;;;;;;;;;;;;;;;3.61;100.00;99770.66;6283781;28;20368;-77
2024/01/02 01:46:22;;;;;;;;;;;;;;;3.64;100.00;99767.97;6256186;28;19964;-77
2024/01/02 01:49:23;;;;;;;;;;;;;;;3.68;100.00;99769.53;6295180;28;19938;-77
2024/01/02 01:52:24;;;;;;;;;;;;;;;3.51;100.00;99765.00;6269175;28;20019;-83
2024/01/02 01:55:25;;;;;;;;;;;;;;;3.61;100.00;99762.94;6282959;28;20404;-83
2024/01/02 01:58:27;;;;;;;;;;;;;;;3.67;100.00;99761.88;6282043;28;19929;-83
2024/01/02 02:01:28;;;;;;;;;;;;;;;3.69;100.00;99768.66;6288774;28;19966;-82
2024/01/02 02:04:30;;;;;;;;;;;;;;;3.73;100.00;99767.63;6273615;28;20308;-82
2024/01/02 02:07:32;;;;;;;;;;;;;;;3.67;100.00;99764.44;6277412;28;19920;-77
2024/01/02 02:10:32;;;;;;;;;;;;;;;3.79;100.00;99759.66;6276399;28;19974;-77
2024/01/02 02:13:35;;;;;;;;;;;;;;;3.78;100.00;99770.88;6294280;28;19940;-77
2024/01/02 02:16:38;;;;;;;;;;;;;;;3.83;100.00;99768.16;6271374;28;20334;-77
2024/01/02 02:19:38;;;;;;;;;;;;;;;3.76;100.00;99764.94;6296934;28;19920;-77
2024/01/02 02:22:45;;;;;;;;;;;;;;;3.67;100.00;99767.88;6275035;28;20400;-77
2024/01/02 02:25:46;;;;;;;;;;;;;;;3.79;100.00;99770.00;6279006;28;19931;-83
2024/01/02 02:28:46;;;;;;;;;;;;;;;3.84;100.00;99774.97;6288355;28;19924;-82
2024/01/02 02:31:47;;;;;;;;;;;;;;;3.83;100.00;99766.41;6255200;28;19951;-83
2024/01/02 02:34:48;;;;;;;;;;;;;;;3.71;100.00;99773.75;6273504;28;20010;-77
2024/01/02 02:37:48;;;;;;;;;;;;;;;3.80;100.00;99775.97;6263948;28;20369;-77
2024/01/02 02:40:49;;;;;;;;;;;;;;;3.84;100.00;99775.81;6294001;28;19950;-77
2024/01/02 02:43:50;;;;;;;;;;;;;;;4.02;100.00;99765.69;6277382;28;19928;-77
2024/01/02 02:46:51;;;;;;;;;;;;;;;3.80;100.00;99763.09;6293910;28;19921;-82
2024/01/02 02:49:52;;;;;;;;;;;;;;;3.92;100.00;99759.19;6273670;28;19920;-82
2024/01/02 02:52:52;;;;;;;;;;;;;;;3.93;100.00;99756.56;6273319;28;20365;-77
2024/01/02 02:55:53;;;;;;;;;;;;;;;4.01;100.00;99751.91;6275614;28;20022;-83
2024/01/02 02:58:54;;;;;;;;;;;;;;;4.00;100.00;99736.50;6277783;28;19920;-77
2024/01/02 03:01:55;;;;;;;;;;;;;;;3.88;100.00;99735.25;6275045;28;20374;-77
2024/01/02 03:04:56;;;;;;;;;;;;;;;4.04;100.00;99741.50;6267588;28;20044;-83
2024/01/02 03:07:57;;;;;;;;;;;;;;;4.00;100.00;99742.50;6254414;28;19924;-77
2024/01/02 03:11:01;;;;;;;;;;;;;;;4.07;100.00;99739.69;6269868;28;19920;-84
2024/01/02 03:14:02;;;;;;;;;;;;;;;4.17;100.00;99730.69;6277137;28;20050;-83
2024/01/02 03:17:04;;;;;;;;;;;;;;;4.12;100.00;99717.97;6286639;28;20308;-83
2024/01/02 03:20:05;;;;;;;;;;;;;;;4.02;100.00;99721.81;6283455;28;20438;-77
2024/01/02 03:23:06;;;;;;;;;;;;;;;3.97;100.00;99721.13;6269549;28;19920;-77
2024/01/02 03:26:08;;;;;;;;;;;;;;;4.14;100.00;99723.03;6266337;28;19920;-83
2024/01/02 03:29:09;;;;;;;;;;;;;;;4.22;100.00;99724.44;6276042;28;20252;-83
2024/01/02 03:32:10;;;;;;;;;;;;;;;4.30;100.00;99726.69;6256984;28;19971;-78
2024/01/02 03:35:11;;;;;;;;;;;;;;;4.39;100.00;99731.50;6266045;28;20225;-78
2024/01/02 03:38:12;;;;;;;;;;;;;;;4.27;100.00;99739.75;6277920;28;19921;-77
2024/01/02 03:41:13;;;;;;;;;;;;;;;4.27;100.00;99736.31;6292280;28;19920;-78
2024/01/02 03:44:15;;;;;;;;;;;;;;;4.43;100.00;99734.81;6279650;28;19920;-78
2024/01/02 03:47:15;;;;;;;;;;;;;;;4.35;100.00;99736.84;6259981;28;19967;-77
2024/01/02 03:50:16;;;;;;;;;;;;;;;4.35;100.00;99731.69;6268629;28;19920;-78
2024/01/02 03:53:17;;;;;;;;;;;;;;;4.27;100.00;99736.31;6270930;28;20364;-83
2024/01/02 03:56:18;;;;;;;;;;;;;;;4.28;100.00;99743.16;6267335;28;19924;-82
2024/01/02 03:59:19;;;;;;;;;;;;;;;4.18;100.00;99732.34;6267097;28;19920;-84
2024/01/02 04:02:19;;;;;;;;;;;;;;;4.22;100.00;99736.47;6267614;28;20182;-78
2024/01/02 04:05:20;;;;;;;;;;;;;;;4.21;100.00;99738.22;6278168;28;19975;-83
2024/01/02 04:08:21;;;;;;;;;;;;;;;4.15;100.00;99753.13;6257798;28;19936;-82
2024/01/02 04:11:21;;;;;;;;;;;;;;;4.11;100.00;99755.00;6277758;28;19926;-82
2024/01/02 04:14:22;;;;;;;;;;;;;;;4.12;100.00;99758.41;6258889;28;19960;-82
2024/01/02 04:17:23;;;;;;;;;;;;;;;3.99;100.00;99751.13;6274587;28;19926;-82
2024/01/02 04:20:24;;;;;;;;;;;;;;;4.10;100.00;99752.47;6276949;28;20007;-82
2024/01/02 04:23:24;;;;;;;;;;;;;;;4.08;100.00;99749.97;6275391;28;20391;-83
2024/01/02 04:26:25;;;;;;;;;;;;;;;4.14;100.00;99741.97;6285284;28;20304;-77
2024/01/02 04:29:29;;;;;;;;;;;;;;;4.20;100.00;99736.56;6273564;28;19920;-78
2024/01/02 04:32:30;;;;;;;;;;;;;;;4.13;100.00;99731.69;6279274;28;19927;-77
2024/01/02 04:35:30;;;;;;;;;;;;;;;4.19;100.00;99734.88;6264220;28;20369;-77
2024/01/02 04:38:31;;;;;;;;;;;;;;;4.09;100.00;99738.72;6284074;28;19968;-78
2024/01/02 04:41:32;;;;;;;;;;;;;;;4.17;100.00;99741.00;6267726;28;19927;-83
2024/01/02 04:44:33;;;;;;;;;;;;;;;4.14;100.00;99738.53;6270979;28;19924;-78
2024/01/02 04:47:34;;;;;;;;;;;;;;;4.11;100.00;99743.84;6264698;28;19925;-77
2024/01/02 04:50:35;;;;;;;;;;;;;;;4.11;100.00;99747.25;6250743;28;20340;-77
2024/01/02 04:53:35;;;;;;;;;;;;;;;4.15;100.00;99753.97;6250751;28;20278;-77
2024/01/02 04:56:36;;;;;;;;;;;;;;;4.07;100.00;99742.28;6266908;28;19927;-77
2024/01/02 04:59:37;;;;;;;;;;;;;;;4.06;100.00;99743.16;6275700;28;19920;-77
2024/01/02 05:02:38;;;;;;;;;;;;;;;4.09;100.00;99740.47;6267767;28;19924;-77
2024/01/02 05:05:39;;;;;;;;;;;;;;;4.07;100.00;99739.69;6251948;28;20008;-83
2024/01/02 05:08:39;;;;;;;;;;;;;;;4.06;100.00;99732.81;6251046;28;19928;-83
2024/01/02 05:11:40;;;;;;;;;;;;;;;3.83;100.00;99732.00;6253230;28;19921;-85
2024/01/02 05:14:40;;;;;;;;;;;;;;;3.79;100.00;99730.44;6292685;28;19948;-83
2024/01/02 05:17:41;;;;;;;;;;;;;;;3.71;100.00;99747.97;6262988;28;20522;-83
2024/01/02 05:20:42;;;;;;;;;;;;;;;3.55;100.00;99743.34;6287862;28;19927;-77
2024/01/02 05:23:43;;;;;;;;;;;;;;;3.57;100.00;99746.72;6284429;28;20039;-83
2024/01/02 05:26:43;;;;;;;;;;;;;;;3.57;100.00;99744.13;6291363;28;19921;-77
2024/01/02 05:29:44;;;;;;;;;;;;;;;3.45;100.00;99760.06;6269535;28;19921;-77
2024/01/02 05:32:45;;;;;;;;;;;;;;;3.53;100.00;99760.63;6287129;28;19920;-83
2024/01/02 05:35:46;;;;;;;;;;;;;;;3.53;100.00;99765.78;6288622;28;19965;-78
2024/01/02 05:38:46;;;;;;;;;;;;;;;3.51;100.00;99765.00;6274810;28;20007;-77
2024/01/02 05:41:49;;;;;;;;;;;;;;;3.52;100.00;99781.31;6296205;28;19920;-78
2024/01/02 05:44:50;;;;;;;;;;;;;;;3.56;100.00;99780.31;6293930;28;19920;-78
2024/01/02 05:47:51;;;;;;;;;;;;;;;3.57;100.00;99779.41;6280173;28;19931;-78
2024/01/02 05:50:52;;;;;;;;;;;;;;;3.51;100.00;99780.47;6274398;28;19955;-78
2024/01/02 05:53:52;;;;;;;;;;;;;;;3.54;100.00;99785.53;6281025;28;19927;-78
2024/01/02 05:56:53;;;;;;;;;;;;;;;3.60;100.00;99787.03;6277127;28;20027;-78
2024/01/02 05:59:54;;;;;;;;;;;;;;;3.55;100.00;99788.97;6267568;28;19924;-77
2024/01/02 06:02:55;;;;;;;;;;;;;;;3.65;100.00;99784.31;6279133;28;20023;-77
2024/01/02 06:05:56;;;;;;;;;;;;;;;3.58;100.00;99783.66;6301393;28;20027;-77
2024/01/02 06:08:57;;;;;;;;;;;;;;;3.67;100.00;99785.09;6275943;28;19928;-77
2024/01/02 06:11:59;;;;;;;;;;;;;;;3.66;100.00;99784.22;6298097;28;19920;-83
2024/01/02 06:15:00;;;;;;;;;;;;;;;3.71;100.00;99784.91;6290875;28;19928;-83
2024/01/02 06:18:01;;;;;;;;;;;;;;;3.65;100.00;99777.41;6277124;28;19920;-83
2024/01/02 06:21:04;;;;;;;;;;;;;;;3.56;100.00;99772.56;6259397;28;19920;-83
2024/01/02 06:24:05;;;;;;;;;;;;;;;3.48;100.00;99774.59;6255711;28;19920;-84
2024/01/02 06:27:05;;;;;;;;;;;;;;;3.52;100.00;99776.16;6260963;28;19990;-82
2024/01/02 06:30:07;;;;;;;;;;;;;;;3.51;100.00;99780.47;6274933;28;19989;-83
2024/01/02 06:33:08;;;;;;;;;;;;;;;3.48;100.00;99778.03;6292507;28;19966;-83
2024/01/02 06:36:09;;;;;;;;;;;;;;;3.51;100.00;99779.66;6278889;28;19920;-77
2024/01/02 06:39:10;;;;;;;;;;;;;;;3.36;100.00;99774.13;6295898;28;20292;-77
2024/01/02 06:42:11;;;;;;;;;;;;;;;3.54;100.00;99771.78;6279090;28;19920;-86
2024/01/02 06:45:11;;;;;;;;;;;;;;;3.51;100.00;99771.91;6272906;28;20308;-77
2024/01/02 06:48:12;;;;;;;;;;;;;;;3.49;100.00;99777.13;6280817;28;19947;-77
2024/01/02 06:51:13;;;;;;;;;;;;;;;3.56;100.00;99783.75;6295230;28;19927;-77
2024/01/02 06:54:14;;;;;;;;;;;;;;;3.65;100.00;99774.81;6272454;28;20636;-82
2024/01/02 06:57:15;;;;;;;;;;;;;;;3.57;100.00;99790.56;6264384;28;19920;-77
2024/01/02 07:00:16;;;;;;;;;;;;;;;3.68;100.00;99766.94;6277329;28;19920;-77
2024/01/02 07:03:17;;;;;;;;;;;;;;;3.63;100.00;99769.72;6274757;28;19931;-77
2024/01/02 07:06:19;;;;;;;;;;;;;;;3.57;100.00;99769.94;6288365;28;19920;-77
2024/01/02 07:09:20;;;;;;;;;;;;;;;3.76;100.00;99761.50;6273144;28;19920;-77
2024/01/02 07:12:21;;;;;;;;;;;;;;;3.60;100.00;99756.94;6290740;28;19928;-83
2024/01/02 07:15:22;;;;;;;;;;;;;;;3.54;100.00;99762.31;6291108;28;19974;-78
2024/01/02 07:18:22;;;;;;;;;;;;;;;3.59;100.00;99762.16;6279677;28;19921;-78
2024/01/02 07:21:23;;;;;;;;;;;;;;;3.67;100.00;99760.13;6287125;28;19928;-77
2024/01/02 07:24:25;;;;;;;;;;;;;;;3.73;100.00;99759.91;6261487;28;19950;-77
2024/01/02 07:27:26;;;;;;;;;;;;;;;3.74;100.00;99758.97;6272601;28;20026;-78
2024/01/02 07:30:27;;;;;;;;;;;;;;;3.94;100.00;99749.66;6275786;28;19928;-77
2024/01/02 07:33:27;;;;;;;;;;;;;;;3.91;100.00;99744.59;6276920;28;20360;-78
2024/01/02 07:36:28;;;;;;;;;;;;;;;4.00;100.00;99741.69;6263507;28;20273;-77
2024/01/02 07:39:29;;;;;;;;;;;;;;;4.03;100.00;99744.13;6276661;28;19920;-77
2024/01/02 07:42:31;;;;;;;;;;;;;;;4.16;100.00;99741.88;6270180;28;19921;-85
2024/01/02 07:45:32;;;;;;;;;;;;;;;4.32;100.00;99739.53;6271686;28;20353;-84
2024/01/02 07:48:33;;;;;;;;;;;;;;;4.52;100.00;99744.75;6295949;28;20432;-87
2024/01/02 07:51:34;;;;;;;;;;;;;;;4.67;100.00;99745.84;6277701;28;19928;-86
2024/01/02 07:54:38;;;;;;;;;;;;;;;4.72;100.00;99743.94;6295520;28;19940;-85
2024/01/02 07:57:39;;;;;;;;;;;;;;;4.78;100.00;99743.69;6281778;28;20007;-86
2024/01/02 08:00:40;;;;;;;;;;;;;;;4.87;100.00;99746.78;6288433;28;20345;-84
2024/01/02 08:03:41;;;;;;;;;;;;;;;4.84;100.00;99746.00;6283626;28;20292;-84
2024/01/02 08:06:41;;;;;;;;;;;;;;;5.05;100.00;99749.41;6271219;28;20007;-84
2024/01/02 08:09:43;;;;;;;;;;;;;;;5.20;100.00;99753.06;6273414;28;19920;-84
2024/01/02 08:12:43;;;;;;;;;;;;;;;5.20;100.00;99752.25;6294937;28;20428;-82
2024/01/02 08:15:44;;;;;;;;;;;;;;;5.33;100.00;99761.13;6271709;28;19920;-83
2024/01/02 08:18:45;;;;;;;;;;;;;;;5.40;100.00;99764.31;6278106;28;19921;-77
2024/01/02 08:21:46;;;;;;;;;;;;;;;5.64;100.00;99764.94;6252808;28;19935;-78
2024/01/02 08:24:47;;;;;;;;;;;;;;;5.94;100.00;99761.88;6279670;28;19970;-78
2024/01/02 08:27:48;;;;;;;;;;;;;;;5.95;100.00;99764.44;6295153;28;19921;-77
2024/01/02 08:30:49;;;;;;;;;;;;;;;5.96;100.00;99773.03;6267655;28;19920;-78
2024/01/02 08:33:49;;;;;;;;;;;;;;;6.09;100.00;99762.94;6270023;28;19920;-78
2024/01/02 08:36:50;;;;;;;;;;;;;;;6.20;100.00;99771.06;6252402;28;19928;-77
2024/01/02 08:39:51;;;;;;;;;;;;;;;6.11;100.00;99784.41;6268855;28;20365;-85
2024/01/02 08:42:53;;;;;;;;;;;;;;;6.16;100.00;99785.06;6269756;28;19920;-84
2024/01/02 08:45:53;;;;;;;;;;;;;;;5.96;100.00;99780.81;6293467;28;19974;-84
2024/01/02 08:48:54;;;;;;;;;;;;;;;5.86;100.00;99785.53;6293768;28;19924;-82
2024/01/02 08:51:58;;;;;;;;;;;;;;;5.82;100.00;99797.75;6276427;28;20396;-84
2024/01/02 08:54:59;;;;;;;;;;;;;;;6.03;100.00;99793.41;6276380;28;19928;-83
2024/01/02 08:58:00;;;;;;;;;;;;;;;6.08;100.00;99798.38;6276349;28;19973;-81
2024/01/02 09:01:01;;;;;;;;;;;;;;;6.02;100.00;99799.47;6283679;28;19925;-78
2024/01/02 09:04:02;;;;;;;;;;;;;;;6.07;100.00;99803.59;6251926;28;19921;-78
2024/01/02 09:07:03;;;;;;;;;;;;;;;5.91;100.00;99790.47;6251998;28;19944;-78
2024/01/02 09:10:03;;;;;;;;;;;;;;;6.10;100.00;99785.34;6251770;28;19935;-77
2024/01/02 09:13:04;;;;;;;;;;;;;;;5.99;100.00;99786.69;6251747;28;20433;-77
2024/01/02 09:16:06;;;;;;;;;;;;;;;6.20;100.00;99776.22;6285193;28;19920;-77
2024/01/02 09:19:06;;;;;;;;;;;;;;;6.09;100.00;99776.72;6269342;28;19920;-82
2024/01/02 09:22:07;;;;;;;;;;;;;;;6.12;100.00;99776.59;6269850;28;20391;-83
2024/01/02 09:25:10;;;;;;;;;;;;;;;6.37;100.00;99773.66;6259532;28;20411;-81
2024/01/02 09:28:12;;;;;;;;;;;;;;;6.20;100.00;99777.06;6269386;28;19925;-82
2024/01/02 09:31:13;;;;;;;;;;;;;;;6.16;100.00;99765.16;6276016;28;19982;-82
2024/01/02 09:34:14;;;;;;;;;;;;;;;6.13;100.00;99775.66;6264062;28;20373;-77
2024/01/02 09:37:14;;;;;;;;;;;;;;;6.20;100.00;99771.88;6268237;28;19921;-78
2024/01/02 09:40:36;;;;;;;;;;;;;;;5.98;100.00;99782.41;6283762;28;19974;-78
2024/01/02 09:43:39;;;;;;;;;;;;;;;6.26;100.00;99775.94;6272404;28;20377;-82
2024/01/02 09:46:46;;;;;;;;;;;;;;;6.38;100.00;99771.91;6259230;28;20327;-83
2024/01/02 09:49:50;;;;;;;;;;;;;;;6.58;100.00;99765.75;6267308;28;19925;-78
2024/01/02 09:52:51;;;;;;;;;;;;;;;6.50;100.00;99767.88;6265267;28;19921;-78
2024/01/02 09:55:53;;;;;;;;;;;;;;;6.86;100.00;99758.28;6283047;28;19928;-78
2024/01/02 09:59:14;;;;;;;;;;;;;;;6.89;100.00;99757.28;6282437;28;19921;-78
2024/01/02 10:02:28;;;;;;;;;;;;;;;7.09;100.00;99747.66;6262406;28;20002;-78
2024/01/02 10:05:39;;;;;;;;;;;;;;;7.12;100.00;99750.91;6281521;28;20355;-79
2024/01/02 10:08:58;;;;;;;;;;;;;;;6.93;100.00;99756.22;6289454;28;20031;-78
2024/01/02 10:12:08;;;;;;;;;;;;;;;7.02;100.00;99752.31;6285324;28;19920;-83
2024/01/02 10:15:17;;;;;;;;;;;;;;;7.22;100.00;99752.13;6287755;28;20360;-85
2024/01/02 10:18:24;;;;;;;;;;;;;;;7.44;100.00;99751.03;6279354;28;20510;-83
2024/01/02 10:21:28;;;;;;;;;;;;;;;7.39;100.00;99747.81;6285777;28;20018;-83
2024/01/02 10:24:29;;;;;;;;;;;;;;;7.61;100.00;99750.94;6260859;28;20300;-78
2024/01/02 10:27:42;;;;;;;;;;;;;;;7.60;100.00;99741.50;6281607;28;19960;-78
2024/01/02 10:30:43;;;;;;;;;;;;;;;7.90;100.00;99753.72;6280175;28;19920;-84
2024/01/02 10:34:03;;;;;;;;;;;;;;;7.86;100.00;99736.63;6296767;28;20030;-80
2024/01/02 10:37:06;;;;;;;;;;;;;;;8.02;100.00;99734.88;6262825;28;19920;-78
2024/01/02 10:40:27;;;;;;;;;;;;;;;7.99;100.00;99735.06;6248725;28;19920;-78
2024/01/02 10:44:03;;;;;;;;;;;;;;;8.05;99.65;99724.31;6284780;28;19925;-78
2024/01/02 10:47:42;;;;;;;;;;;;;;;8.01;99.71;99708.97;6271536;28;19929;-78
2024/01/02 10:51:09;;;;;;;;;;;;;;;8.26;99.23;99708.44;6257324;28;19924;-78
2024/01/02 10:54:35;;;;;;;;;;;;;;;8.28;97.40;99704.81;6261345;28;19931;-78
2024/01/02 10:58:06;;;;;;;;;;;;;;;8.31;98.46;99702.97;6285266;28;19921;-78
2024/01/02 11:01:10;;;;;;;;;;;;;;;8.25;98.85;99696.34;6287628;28;20111;-82
2024/01/02 11:04:19;;;;;;;;;;;;;;;8.39;100.00;99693.81;6283780;28;19931;-81
2024/01/02 11:07:21;;;;;;;;;;;;;;;8.48;98.61;99689.84;6292522;28;19920;-82
2024/01/02 11:10:24;;;;;;;;;;;;;;;8.55;97.71;99691.19;6296313;28;19921;-83
2024/01/02 11:13:29;;;;;;;;;;;;;;;8.50;96.98;99681.97;6295808;28;19927;-78
2024/01/02 11:16:30;;;;;;;;;;;;;;;9.02;95.98;99676.28;6296574;28;20380;-79
2024/01/02 11:19:36;;;;;;;;;;;;;;;8.76;95.86;99668.28;6296795;28;19920;-78
2024/01/02 11:22:48;;;;;;;;;;;;;;;8.84;97.19;99678.22;6292838;28;20474;-83
2024/01/02 11:26:08;;;;;;;;;;;;;;;8.65;98.15;99671.53;6278482;28;19920;-78
2024/01/02 11:29:16;;;;;;;;;;;;;;;8.53;98.09;99661.84;6296066;28;19966;-83
2024/01/02 11:32:20;;;;;;;;;;;;;;;8.88;97.28;99654.53;6277575;28;19921;-79
2024/01/02 11:35:21;;;;;;;;;;;;;;;8.70;97.83;99652.19;6296176;28;20003;-77
2024/01/02 11:38:26;;;;;;;;;;;;;;;8.65;97.65;99637.72;6257659;28;19990;-83
2024/01/02 11:41:40;;;;;;;;;;;;;;;8.74;95.48;99644.13;6277147;28;19920;-79
2024/01/02 11:44:44;;;;;;;;;;;;;;;8.51;97.90;99631.66;6269948;28;19920;-82
2024/01/02 11:47:48;;;;;;;;;;;;;;;8.40;99.29;99634.84;6270988;28;20015;-77
2024/01/02 11:50:49;;;;;;;;;;;;;;;8.27;100.00;99635.56;6268632;28;20395;-79
2024/01/02 11:53:52;;;;;;;;;;;;;;;8.34;100.00;99636.06;6267588;28;19921;-79
2024/01/02 11:56:53;;;;;;;;;;;;;;;8.38;100.00;99634.94;6281682;28;19921;-78
2024/01/02 11:59:57;;;;;;;;;;;;;;;8.12;100.00;99635.63;6285258;28;20411;-82
2024/01/02 12:03:15;;;;;;;;;;;;;;;7.98;100.00;99633.81;6281380;28;19947;-83
2024/01/02 12:06:31;;;;;;;;;;;;;;;7.92;100.00;99634.97;6294065;28;19965;-82
2024/01/02 12:09:36;;;;;;;;;;;;;;;7.76;100.00;99637.63;6291223;28;19931;-82
2024/01/02 12:12:41;;;;;;;;;;;;;;;8.04;100.00;99642.06;6294444;28;20399;-83
2024/01/02 12:15:42;;;;;;;;;;;;;;;8.00;100.00;99634.56;6295195;28;19920;-83
2024/01/02 12:18:45;;;;;;;;;;;;;;;7.94;100.00;99622.75;6293710;28;20003;-82
2024/01/02 12:21:48;;;;;;;;;;;;;;;8.07;100.00;99628.94;6293585;28;20011;-82
2024/01/02 12:24:49;;;;;;;;;;;;;;;8.01;100.00;99628.41;6288742;28;19931;-83
2024/01/02 12:27:52;;;;;;;;;;;;;;;7.97;100.00;99630.38;6286681;28;19928;-83
2024/01/02 12:31:07;;;;;;;;;;;;;;;7.93;100.00;99625.41;6294516;28;20269;-79
2024/01/02 12:34:34;;;;;;;;;;;;;;;7.95;100.00;99624.44;6294978;28;19924;-82
2024/01/02 12:37:37;;;;;;;;;;;;;;;7.98;100.00;99624.25;6253863;28;19924;-79
2024/01/02 12:40:42;;;;;;;;;;;;;;;7.88;100.00;99626.50;6294160;28;19924;-79
2024/01/02 12:43:47;;;;;;;;;;;;;;;7.84;100.00;99624.19;6276830;28;20360;-79
2024/01/02 12:46:47;;;;;;;;;;;;;;;7.80;100.00;99620.94;6282055;28;20436;-85
2024/01/02 12:50:08;;;;;;;;;;;;;;;8.13;100.00;99611.28;6269863;28;19921;-79
2024/01/02 12:53:10;;;;;;;;;;;;;;;8.10;100.00;99614.09;6251926;28;20415;-79
2024/01/02 12:56:17;;;;;;;;;;;;;;;8.08;100.00;99619.34;6261437;28;19973;-80
2024/01/02 12:59:18;;;;;;;;;;;;;;;8.01;100.00;99620.63;6275168;28;19920;-79
2024/01/02 13:02:21;;;;;;;;;;;;;;;8.17;100.00;99617.97;6276490;28;19921;-79
2024/01/02 13:05:22;;;;;;;;;;;;;;;8.10;100.00;99614.91;6294255;28;20450;-84
2024/01/02 13:08:23;;;;;;;;;;;;;;;8.31;100.00;99606.78;6276678;28;19973;-84
2024/01/02 13:11:24;;;;;;;;;;;;;;;7.94;100.00;99609.75;6276655;28;20023;-79
2024/01/02 13:14:25;;;;;;;;;;;;;;;7.96;100.00;99610.50;6276427;28;19981;-79
2024/01/02 13:17:27;;;;;;;;;;;;;;;7.88;100.00;99607.50;6276697;28;19920;-83
2024/01/02 13:20:28;;;;;;;;;;;;;;;7.94;100.00;99601.97;6294416;28;20486;-80
2024/01/02 13:23:29;;;;;;;;;;;;;;;7.95;100.00;99595.00;6276389;28;19928;-82
2024/01/02 13:26:40;;;;;;;;;;;;;;;8.18;100.00;99584.13;6294111;28;19932;-84
2024/01/02 13:29:47;;;;;;;;;;;;;;;8.03;100.00;99582.41;6276966;28;19943;-85
2024/01/02 13:32:51;;;;;;;;;;;;;;;7.86;100.00;99580.78;6297149;28;20438;-79
2024/01/02 13:36:03;;;;;;;;;;;;;;;7.73;100.00;99574.63;6283548;28;19967;-79
2024/01/02 13:39:04;;;;;;;;;;;;;;;7.80;100.00;99583.72;6301518;28;19921;-79
2024/01/02 13:42:06;;;;;;;;;;;;;;;7.74;100.00;99581.47;6301385;28;19928;-79
2024/01/02 13:45:20;;;;;;;;;;;;;;;7.61;100.00;99576.16;6283608;28;19958;-78
2024/01/02 13:48:21;;;;;;;;;;;;;;;7.65;100.00;99578.47;6282794;28;20280;-78
2024/01/02 13:51:23;;;;;;;;;;;;;;;7.82;100.00;99579.28;6299671;28;19921;-79
2024/01/02 13:54:23;;;;;;;;;;;;;;;7.66;100.00;99572.38;6280067;28;19921;-79
2024/01/02 13:57:28;;;;;;;;;;;;;;;7.81;100.00;99569.81;6275957;28;20300;-79
2024/01/02 14:00:28;;;;;;;;;;;;;;;7.53;100.00;99557.56;6258182;28;20316;-79
2024/01/02 14:03:30;;;;;;;;;;;;;;;7.73;100.00;99557.28;6285190;28;19928;-81
2024/01/02 14:06:32;;;;;;;;;;;;;;;7.74;100.00;99563.28;6282303;28;19999;-79
2024/01/02 14:09:33;;;;;;;;;;;;;;;7.60;100.00;99559.75;6266900;28;19967;-79
2024/01/02 14:12:38;;;;;;;;;;;;;;;7.71;100.00;99553.09;6273380;28;19925;-79
2024/01/02 14:15:39;;;;;;;;;;;;;;;7.65;100.00;99543.88;6255826;28;19925;-79
2024/01/02 14:18:42;;;;;;;;;;;;;;;7.50;100.00;99539.59;6280170;28;19991;-82
2024/01/02 14:21:42;;;;;;;;;;;;;;;7.54;100.00;99544.50;6279112;28;19920;-80
2024/01/02 14:24:52;;;;;;;;;;;;;;;7.43;100.00;99542.53;6298112;28;19989;-84
2024/01/02 14:27:53;;;;;;;;;;;;;;;7.42;100.00;99535.63;6297569;28;20007;-84
2024/01/02 14:31:11;;;;;;;;;;;;;;;7.38;100.00;99528.13;6285377;28;19921;-83
2024/01/02 14:34:12;;;;;;;;;;;;;;;7.25;100.00;99525.38;6272900;28;19921;-82
2024/01/02 14:37:19;;;;;;;;;;;;;;;7.42;100.00;99519.25;6273043;28;19928;-79
2024/01/02 14:40:31;;;;;;;;;;;;;;;7.31;100.00;99526.78;6280065;28;19926;-84
2024/01/02 14:43:32;;;;;;;;;;;;;;;7.35;100.00;99523.94;6263754;28;19927;-80
2024/01/02 14:46:46;;;;;;;;;;;;;;;7.43;100.00;99526.09;6271451;28;19921;-84
2024/01/02 14:49:53;;;;;;;;;;;;;;;7.43;100.00;99529.53;6254788;28;20434;-83
2024/01/02 14:53:04;;;;;;;;;;;;;;;7.42;100.00;99537.41;6274120;28;19920;-82
2024/01/02 14:56:24;;;;;;;;;;;;;;;7.24;100.00;99531.47;6282740;28;19985;-80
2024/01/02 14:59:30;;;;;;;;;;;;;;;7.32;100.00;99525.88;6287360;28;19920;-83
2024/01/02 15:02:43;;;;;;;;;;;;;;;7.21;100.00;99527.31;6281050;28;19947;-85
2024/01/02 15:05:55;;;;;;;;;;;;;;;7.07;100.00;99527.22;6286680;28;20011;-83
2024/01/02 15:09:12;;;;;;;;;;;;;;;6.93;100.00;99534.91;6277964;28;20004;-84
2024/01/02 15:12:22;;;;;;;;;;;;;;;7.05;100.00;99531.66;6297367;28;19920;-84
2024/01/02 15:15:34;;;;;;;;;;;;;;;7.03;100.00;99523.94;6296989;28;19920;-84
2024/01/02 15:18:50;;;;;;;;;;;;;;;6.91;100.00;99516.84;6295498;28;20288;-84
2024/01/02 15:22:10;;;;;;;;;;;;;;;6.75;100.00;99516.81;6295522;28;19927;-88
2024/01/02 15:25:13;;;;;;;;;;;;;;;6.78;100.00;99508.06;6296805;28;19928;-85
2024/01/02 15:28:18;;;;;;;;;;;;;;;6.67;100.00;99503.44;6296203;28;19921;-86
2024/01/02 15:31:30;;;;;;;;;;;;;;;6.76;100.00;99507.31;6279215;28;19927;-85
2024/01/02 15:34:36;;;;;;;;;;;;;;;6.60;100.00;99509.88;6278618;28;19978;-87
2024/01/02 15:37:42;;;;;;;;;;;;;;;6.64;100.00;99501.84;6296357;28;19947;-85
2024/01/02 15:40:44;;;;;;;;;;;;;;;6.41;100.00;99491.88;6259043;28;20007;-85
2024/01/02 15:43:52;;;;;;;;;;;;;;;6.62;100.00;99495.09;6257437;28;20375;-85
2024/01/02 15:47:12;;;;;;;;;;;;;;;6.38;100.00;99497.22;6279776;28;20293;-86
2024/01/02 15:50:28;;;;;;;;;;;;;;;6.42;100.00;99488.34;6295060;28;19967;-85
2024/01/02 15:53:31;;;;;;;;;;;;;;;6.39;100.00;99485.94;6278106;28;20278;-85
2024/01/02 15:56:33;;;;;;;;;;;;;;;6.36;100.00;99481.75;6292766;28;20461;-85